Time,TemperatureF,DewpointF,PressureIn,WindDirection,WindDirectionDegrees,WindSpeedMPH,WindSpeedGustMPH,Humidity,HourlyPrecipIn,Conditions,Clouds,dailyrainin,SoftwareType,DateUTC
2013-02-15 00:01:00,23.5,21.0,29.94,WNW,287,0.0,0.0,90,0.00,,,0.00,LWC V2.10 B1813,2013-02-15 05:01:00,
2013-02-15 00:06:00,23.4,21.2,29.94,WNW,287,0.0,0.0,91,0.00,,,0.00,LWC V2.10 B1813,2013-02-15 05:06:00,
2013-02-15 00:11:00,23.0,20.8,29.94,WNW,287,0.0,0.0,91,0.00,,,0.00,LWC V2.10 B1813,2013-02-15 05:11:00,
2013-02-15 00:16:00,22.9,20.9,29.94,WNW,286,0.0,0.0,92,0.00,,,0.00,LWC V2.10 B1813,2013-02-15 05:16:00,
2013-02-15 00:21:00,23.1,21.4,29.94,WNW,286,0.0,1.0,93,0.00,,,0.00,LWC V2.10 B1813,2013-02-15 05:21:00,
2013-02-15 00:26:00,23.1,21.1,29.94,WNW,286,0.0,0.0,92,0.00,,,0.00,LWC V2.10 B1813,2013-02-15 05:26:00,
2013-02-15 00:31:00,23.1,21.1,29.94,WNW,286,0.0,0.0,92,0.00,,,0.00,LWC V2.10 B1813,2013-02-15 05:31:00,
2013-02-15 00:36:00,23.0,21.0,29.94,WNW,286,0.0,1.0,92,0.00,,,0.00,LWC V2.10 B1813,2013-02-15 05:36:00,
2013-02-15 00:41:00,22.9,20.9,29.94,West,273,0.0,2.0,92,0.00,,,0.00,LWC V2.10 B1813,2013-02-15 05:41:00,
2013-02-15 00:46:00,22.8,20.8,29.94,WNW,286,0.0,1.0,92,0.00,,,0.00,LWC V2.10 B1813,2013-02-15 05:46:00,
2013-02-15 00:51:00,22.7,20.7,29.94,West,272,0.0,0.0,92,0.00,,,0.00,LWC V2.10 B1813,2013-02-15 05:51:00,
2013-02-15 00:56:00,22.6,20.6,29.94,WNW,295,1.0,1.0,92,0.00,,,0.00,LWC V2.10 B1813,2013-02-15 05:56:00,
2013-02-15 01:01:00,22.5,20.5,29.93,WNW,295,0.0,0.0,92,0.00,,,0.00,LWC V2.10 B1813,2013-02-15 06:01:00,
2013-02-15 01:06:00,22.5,20.5,29.93,WNW,296,0.0,0.0,92,0.00,,,0.00,LWC V2.10 B1813,2013-02-15 06:06:00,
2013-02-15 01:11:00,22.2,20.2,29.93,WNW,296,0.0,0.0,92,0.00,,,0.00,LWC V2.10 B1813,2013-02-15 06:11:00,
2013-02-15 01:16:00,21.8,19.8,29.94,WNW,295,0.0,0.0,92,0.00,,,0.00,LWC V2.10 B1813,2013-02-15 06:16:00,
2013-02-15 01:21:00,21.5,19.5,29.94,WNW,296,0.0,0.0,92,0.00,,,0.00,LWC V2.10 B1813,2013-02-15 06:21:00,
2013-02-15 01:26:00,21.4,19.7,29.94,WNW,296,0.0,0.0,93,0.00,,,0.00,LWC V2.10 B1813,2013-02-15 06:26:00,
2013-02-15 01:31:00,21.4,19.7,29.94,WNW,296,0.0,0.0,93,0.00,,,0.00,LWC V2.10 B1813,2013-02-15 06:31:00,
2013-02-15 01:36:00,21.3,19.6,29.94,WNW,296,0.0,0.0,93,0.00,,,0.00,LWC V2.10 B1813,2013-02-15 06:36:00,
2013-02-15 01:41:00,21.1,19.4,29.94,WNW,296,0.0,0.0,93,0.00,,,0.00,LWC V2.10 B1813,2013-02-15 06:41:00,
2013-02-15 01:46:00,20.9,19.2,29.94,WNW,296,0.0,0.0,93,0.00,,,0.00,LWC V2.10 B1813,2013-02-15 06:46:00,
2013-02-15 01:51:00,21.0,19.5,29.94,WNW,294,0.0,0.0,94,0.00,,,0.00,LWC V2.10 B1813,2013-02-15 06:51:00,
2013-02-15 01:56:00,21.1,19.6,29.94,WNW,294,0.0,1.0,94,0.00,,,0.00,LWC V2.10 B1813,2013-02-15 06:56:00,
2013-02-15 02:01:00,21.1,19.6,29.94,WNW,295,0.0,0.0,94,0.00,,,0.00,LWC V2.10 B1813,2013-02-15 07:01:00,
2013-02-15 02:06:00,21.1,19.6,29.95,WNW,296,0.0,0.0,94,0.00,,,0.00,LWC V2.10 B1813,2013-02-15 07:06:00,
2013-02-15 02:11:00,21.1,19.6,29.95,WNW,295,0.0,0.0,94,0.00,,,0.00,LWC V2.10 B1813,2013-02-15 07:11:00,
2013-02-15 02:16:00,21.0,19.5,29.95,WNW,295,0.0,0.0,94,0.00,,,0.00,LWC V2.10 B1813,2013-02-15 07:16:00,
2013-02-15 02:21:00,20.8,19.1,29.94,WNW,295,0.0,0.0,93,0.00,,,0.00,LWC V2.10 B1813,2013-02-15 07:21:00,
2013-02-15 02:26:00,20.4,18.7,29.94,WNW,294,0.0,0.0,93,0.00,,,0.00,LWC V2.10 B1813,2013-02-15 07:26:00,
2013-02-15 02:31:00,20.1,18.4,29.94,WNW,296,0.0,1.0,93,0.00,,,0.00,LWC V2.10 B1813,2013-02-15 07:31:00,
2013-02-15 02:36:00,20.1,18.7,29.94,WNW,296,0.0,0.0,94,0.00,,,0.00,LWC V2.10 B1813,2013-02-15 07:36:00,
2013-02-15 02:41:00,20.1,18.7,29.94,WNW,296,0.0,0.0,94,0.00,,,0.00,LWC V2.10 B1813,2013-02-15 07:41:00,
2013-02-15 02:46:00,20.1,18.7,29.94,WNW,295,0.0,0.0,94,0.00,,,0.00,LWC V2.10 B1813,2013-02-15 07:46:00,
2013-02-15 02:51:00,20.0,18.6,29.94,WNW,295,0.0,0.0,94,0.00,,,0.00,LWC V2.10 B1813,2013-02-15 07:51:00,
2013-02-15 02:56:00,20.0,18.8,29.94,WNW,295,0.0,0.0,95,0.00,,,0.00,LWC V2.10 B1813,2013-02-15 07:56:00,
2013-02-15 03:01:00,20.1,18.9,29.94,WNW,296,0.0,0.0,95,0.00,,,0.00,LWC V2.10 B1813,2013-02-15 08:01:00,
2013-02-15 03:06:00,20.2,19.0,29.94,WNW,295,0.0,0.0,95,0.00,,,0.00,LWC V2.10 B1813,2013-02-15 08:06:00,
2013-02-15 03:11:00,20.3,19.1,29.93,WNW,296,0.0,0.0,95,0.00,,,0.00,LWC V2.10 B1813,2013-02-15 08:11:00,
2013-02-15 03:16:00,20.4,19.2,29.93,WNW,295,0.0,0.0,95,0.00,,,0.00,LWC V2.10 B1813,2013-02-15 08:16:00,
2013-02-15 03:21:00,20.5,19.3,29.93,WNW,295,0.0,0.0,95,0.00,,,0.00,LWC V2.10 B1813,2013-02-15 08:21:00,
2013-02-15 03:26:00,20.6,19.4,29.93,WNW,296,0.0,0.0,95,0.00,,,0.00,LWC V2.10 B1813,2013-02-15 08:26:00,
2013-02-15 03:31:00,20.7,19.5,29.93,WNW,296,0.0,0.0,95,0.00,,,0.00,LWC V2.10 B1813,2013-02-15 08:31:00,
2013-02-15 03:36:00,20.9,19.7,29.93,WNW,296,0.0,0.0,95,0.00,,,0.00,LWC V2.10 B1813,2013-02-15 08:36:00,
2013-02-15 03:41:00,21.0,19.8,29.93,WNW,296,0.0,0.0,95,0.00,,,0.00,LWC V2.10 B1813,2013-02-15 08:41:00,
2013-02-15 03:46:00,21.2,19.7,29.93,WNW,296,0.0,0.0,94,0.00,,,0.00,LWC V2.10 B1813,2013-02-15 08:46:00,
2013-02-15 03:51:00,21.3,20.1,29.94,WNW,296,0.0,0.0,95,0.00,,,0.00,LWC V2.10 B1813,2013-02-15 08:51:00,
2013-02-15 03:56:00,21.6,20.4,29.93,WNW,296,0.0,0.0,95,0.00,,,0.00,LWC V2.10 B1813,2013-02-15 08:56:00,
2013-02-15 04:01:00,21.8,20.6,29.93,WNW,295,0.0,0.0,95,0.00,,,0.00,LWC V2.10 B1813,2013-02-15 09:01:00,
2013-02-15 04:06:00,22.0,20.8,29.93,WNW,296,0.0,0.0,95,0.00,,,0.00,LWC V2.10 B1813,2013-02-15 09:06:00,
2013-02-15 04:11:00,22.2,20.7,29.93,WNW,296,0.0,0.0,94,0.00,,,0.00,LWC V2.10 B1813,2013-02-15 09:11:00,
2013-02-15 04:16:00,22.3,20.8,29.93,WNW,296,0.0,0.0,94,0.00,,,0.00,LWC V2.10 B1813,2013-02-15 09:16:00,
2013-02-15 04:21:00,22.4,20.9,29.94,WNW,295,0.0,0.0,94,0.00,,,0.00,LWC V2.10 B1813,2013-02-15 09:21:00,
2013-02-15 04:26:00,22.5,20.8,29.94,WNW,296,0.0,0.0,93,0.00,,,0.00,LWC V2.10 B1813,2013-02-15 09:26:00,
2013-02-15 04:31:00,22.5,20.8,29.94,WNW,296,0.0,0.0,93,0.00,,,0.00,LWC V2.10 B1813,2013-02-15 09:31:00,
2013-02-15 04:36:00,22.6,20.9,29.94,WNW,295,0.0,0.0,93,0.00,,,0.00,LWC V2.10 B1813,2013-02-15 09:36:00,
2013-02-15 04:41:00,22.7,21.0,29.93,WNW,296,0.0,0.0,93,0.00,,,0.00,LWC V2.10 B1813,2013-02-15 09:41:00,
2013-02-15 04:46:00,22.7,21.0,29.93,WNW,296,0.0,0.0,93,0.00,,,0.00,LWC V2.10 B1813,2013-02-15 09:46:00,
2013-02-15 04:51:00,22.8,21.1,29.93,WNW,295,0.0,0.0,93,0.00,,,0.00,LWC V2.10 B1813,2013-02-15 09:51:00,
2013-02-15 04:56:00,22.8,21.1,29.93,WNW,296,0.0,0.0,93,0.00,,,0.00,LWC V2.10 B1813,2013-02-15 09:56:00,
2013-02-15 05:01:00,22.7,21.0,29.92,WNW,296,0.0,0.0,93,0.00,,,0.00,LWC V2.10 B1813,2013-02-15 10:01:00,
2013-02-15 05:06:00,22.5,20.8,29.92,WNW,295,0.0,0.0,93,0.00,,,0.00,LWC V2.10 B1813,2013-02-15 10:06:00,
2013-02-15 05:11:00,22.4,20.7,29.92,WNW,294,0.0,0.0,93,0.00,,,0.00,LWC V2.10 B1813,2013-02-15 10:11:00,
2013-02-15 05:16:00,22.4,20.7,29.92,WNW,293,0.0,0.0,93,0.00,,,0.00,LWC V2.10 B1813,2013-02-15 10:16:00,
2013-02-15 05:21:00,22.3,20.6,29.92,West,280,0.0,0.0,93,0.00,,,0.00,LWC V2.10 B1813,2013-02-15 10:21:00,
2013-02-15 05:26:00,21.9,19.9,29.92,West,279,0.0,0.0,92,0.00,,,0.00,LWC V2.10 B1813,2013-02-15 10:26:00,
2013-02-15 05:31:00,21.6,19.6,29.92,West,280,0.0,0.0,92,0.00,,,0.00,LWC V2.10 B1813,2013-02-15 10:31:00,
2013-02-15 05:36:00,21.5,19.8,29.93,West,280,0.0,0.0,93,0.00,,,0.00,LWC V2.10 B1813,2013-02-15 10:36:00,
2013-02-15 05:41:00,21.4,19.9,29.93,West,280,0.0,0.0,94,0.00,,,0.00,LWC V2.10 B1813,2013-02-15 10:41:00,
2013-02-15 05:46:00,21.2,19.7,29.93,West,280,0.0,0.0,94,0.00,,,0.00,LWC V2.10 B1813,2013-02-15 10:46:00,
2013-02-15 05:51:00,20.9,19.5,29.93,West,280,0.0,0.0,94,0.00,,,0.00,LWC V2.10 B1813,2013-02-15 10:51:00,
2013-02-15 05:56:00,20.9,19.5,29.93,West,279,0.0,0.0,94,0.00,,,0.00,LWC V2.10 B1813,2013-02-15 10:56:00,
2013-02-15 06:01:00,20.8,19.4,29.93,West,280,0.0,0.0,94,0.00,,,0.00,LWC V2.10 B1813,2013-02-15 11:01:00,
2013-02-15 06:06:00,20.6,19.2,29.93,West,279,0.0,0.0,94,0.00,,,0.00,LWC V2.10 B1813,2013-02-15 11:06:00,
2013-02-15 06:11:00,20.3,18.9,29.93,West,279,0.0,0.0,94,0.00,,,0.00,LWC V2.10 B1813,2013-02-15 11:11:00,
2013-02-15 06:16:00,20.0,18.6,29.93,West,280,0.0,0.0,94,0.00,,,0.00,LWC V2.10 B1813,2013-02-15 11:16:00,
2013-02-15 06:21:00,20.0,18.8,29.93,West,279,0.0,0.0,95,0.00,,,0.00,LWC V2.10 B1813,2013-02-15 11:21:00,
2013-02-15 06:26:00,20.1,18.9,29.93,West,280,0.0,0.0,95,0.00,,,0.00,LWC V2.10 B1813,2013-02-15 11:26:00,
2013-02-15 06:31:00,20.1,18.9,29.93,West,279,0.0,0.0,95,0.00,,,0.00,LWC V2.10 B1813,2013-02-15 11:31:00,
2013-02-15 06:36:00,20.2,19.0,29.93,WNW,283,0.0,0.0,95,0.00,,,0.00,LWC V2.10 B1813,2013-02-15 11:36:00,
2013-02-15 06:41:00,20.1,18.9,29.93,WNW,283,0.0,0.0,95,0.00,,,0.00,LWC V2.10 B1813,2013-02-15 11:41:00,
2013-02-15 06:46:00,20.1,18.9,29.93,WNW,283,0.0,0.0,95,0.00,,,0.00,LWC V2.10 B1813,2013-02-15 11:46:00,
2013-02-15 06:51:00,19.9,18.7,29.93,WNW,282,0.0,0.0,95,0.00,,,0.00,LWC V2.10 B1813,2013-02-15 11:51:00,
2013-02-15 06:56:00,19.7,18.5,29.92,WNW,283,0.0,0.0,95,0.00,,,0.00,LWC V2.10 B1813,2013-02-15 11:56:00,
2013-02-15 07:01:00,19.4,18.2,29.93,WNW,282,0.0,0.0,95,0.00,,,0.00,LWC V2.10 B1813,2013-02-15 12:01:00,
2013-02-15 07:06:00,19.6,18.4,29.92,WNW,283,0.0,0.0,95,0.00,,,0.00,LWC V2.10 B1813,2013-02-15 12:06:00,
2013-02-15 07:11:00,19.7,18.5,29.92,WNW,283,0.0,0.0,95,0.00,,,0.00,LWC V2.10 B1813,2013-02-15 12:11:00,
2013-02-15 07:16:00,19.9,18.7,29.92,WNW,283,0.0,0.0,95,0.00,,,0.00,LWC V2.10 B1813,2013-02-15 12:16:00,
2013-02-15 07:21:00,20.2,19.0,29.92,WNW,283,0.0,0.0,95,0.00,,,0.00,LWC V2.10 B1813,2013-02-15 12:21:00,
2013-02-15 07:26:00,20.3,19.1,29.92,WNW,282,0.0,0.0,95,0.00,,,0.00,LWC V2.10 B1813,2013-02-15 12:26:00,
2013-02-15 07:31:00,20.2,19.0,29.92,WNW,283,0.0,0.0,95,0.00,,,0.00,LWC V2.10 B1813,2013-02-15 12:31:00,
2013-02-15 07:36:00,20.5,19.3,29.93,WNW,283,0.0,0.0,95,0.00,,,0.00,LWC V2.10 B1813,2013-02-15 12:36:00,
2013-02-15 07:41:00,20.8,19.4,29.93,West,281,0.0,0.0,94,0.00,,,0.00,LWC V2.10 B1813,2013-02-15 12:41:00,
2013-02-15 07:46:00,21.3,20.1,29.93,WNW,282,0.0,0.0,95,0.00,,,0.00,LWC V2.10 B1813,2013-02-15 12:46:00,
2013-02-15 07:51:00,21.7,20.2,29.93,WNW,282,0.0,0.0,94,0.00,,,0.00,LWC V2.10 B1813,2013-02-15 12:51:00,
2013-02-15 07:56:00,22.7,21.5,29.93,WNW,282,0.0,0.0,95,0.00,,,0.00,LWC V2.10 B1813,2013-02-15 12:56:00,
2013-02-15 08:01:00,23.5,22.0,29.94,WNW,282,0.0,0.0,94,0.00,,,0.00,LWC V2.10 B1813,2013-02-15 13:01:00,
2013-02-15 08:06:00,23.6,21.6,29.94,West,281,0.0,0.0,92,0.00,,,0.00,LWC V2.10 B1813,2013-02-15 13:06:00,
2013-02-15 08:11:00,23.7,21.7,29.94,West,281,0.0,0.0,92,0.00,,,0.00,LWC V2.10 B1813,2013-02-15 13:11:00,
2013-02-15 08:16:00,24.4,22.7,29.94,West,281,0.0,0.0,93,0.00,,,0.00,LWC V2.10 B1813,2013-02-15 13:16:00,
2013-02-15 08:21:00,25.3,22.8,29.94,West,281,0.0,0.0,90,0.00,,,0.00,LWC V2.10 B1813,2013-02-15 13:21:00,
2013-02-15 08:26:00,25.5,22.7,29.94,SE,135,0.0,0.0,89,0.00,,,0.00,LWC V2.10 B1813,2013-02-15 13:26:00,
2013-02-15 08:31:00,26.1,23.3,29.94,SE,135,0.0,0.0,89,0.00,,,0.00,LWC V2.10 B1813,2013-02-15 13:31:00,
2013-02-15 08:36:00,26.5,23.4,29.94,SE,135,0.0,0.0,88,0.00,,,0.00,LWC V2.10 B1813,2013-02-15 13:36:00,
2013-02-15 08:41:00,26.8,23.5,29.94,SE,126,0.0,0.0,87,0.00,,,0.00,LWC V2.10 B1813,2013-02-15 13:41:00,
2013-02-15 08:46:00,27.1,23.8,29.94,ESE,118,0.0,0.0,87,0.00,,,0.00,LWC V2.10 B1813,2013-02-15 13:46:00,
2013-02-15 08:51:00,27.4,24.0,29.95,ESE,111,0.0,0.0,87,0.00,,,0.00,LWC V2.10 B1813,2013-02-15 13:51:00,
2013-02-15 08:56:00,28.0,24.6,29.94,ESE,122,0.0,0.0,87,0.00,,,0.00,LWC V2.10 B1813,2013-02-15 13:56:00,
2013-02-15 09:01:00,28.6,25.0,29.94,ESE,121,0.0,0.0,86,0.00,,,0.00,LWC V2.10 B1813,2013-02-15 14:01:00,
2013-02-15 09:06:00,29.3,25.4,29.94,ESE,117,0.0,0.0,85,0.00,,,0.00,LWC V2.10 B1813,2013-02-15 14:06:00,
2013-02-15 09:11:00,29.7,25.5,29.94,East,89,0.0,0.0,84,0.00,,,0.00,LWC V2.10 B1813,2013-02-15 14:11:00,
2013-02-15 09:16:00,30.0,25.5,29.94,NE,38,0.0,0.0,83,0.00,,,0.00,LWC V2.10 B1813,2013-02-15 14:16:00,
2013-02-15 09:21:00,30.0,25.5,29.94,NE,54,0.0,0.0,83,0.00,,,0.00,LWC V2.10 B1813,2013-02-15 14:21:00,
2013-02-15 09:26:00,30.4,25.6,29.94,East,99,0.0,0.0,82,0.00,,,0.00,LWC V2.10 B1813,2013-02-15 14:26:00,
2013-02-15 09:31:00,30.4,25.6,29.94,SE,125,3.0,3.0,82,0.00,,,0.00,LWC V2.10 B1813,2013-02-15 14:31:00,
2013-02-15 09:36:00,30.7,25.9,29.94,SE,146,2.0,3.0,82,0.00,,,0.00,LWC V2.10 B1813,2013-02-15 14:36:00,
2013-02-15 09:41:00,31.0,25.9,29.94,SSE,147,0.0,3.0,81,0.00,,,0.00,LWC V2.10 B1813,2013-02-15 14:41:00,
2013-02-15 09:46:00,31.4,26.0,29.94,ESE,116,2.0,2.0,80,0.00,,,0.00,LWC V2.10 B1813,2013-02-15 14:46:00,
2013-02-15 09:51:00,32.1,26.9,29.93,SE,127,1.0,1.0,81,0.00,,,0.00,LWC V2.10 B1813,2013-02-15 14:51:00,
2013-02-15 09:56:00,32.7,26.9,29.93,ESE,123,2.0,2.0,79,0.00,,,0.00,LWC V2.10 B1813,2013-02-15 14:56:00,
2013-02-15 10:01:00,33.2,27.1,29.94,ESE,122,2.0,5.0,78,0.00,,,0.00,LWC V2.10 B1813,2013-02-15 15:01:00,
2013-02-15 10:06:00,33.9,27.8,29.94,ESE,117,4.0,5.0,78,0.00,,,0.00,LWC V2.10 B1813,2013-02-15 15:06:00,
2013-02-15 10:11:00,34.5,28.4,29.93,East,94,0.0,3.0,78,0.00,,,0.00,LWC V2.10 B1813,2013-02-15 15:11:00,
2013-02-15 10:16:00,35.4,28.6,29.93,East,96,1.0,4.0,76,0.00,,,0.00,LWC V2.10 B1813,2013-02-15 15:16:00,
2013-02-15 10:21:00,36.3,29.5,29.93,ESE,109,5.0,6.0,76,0.00,,,0.00,LWC V2.10 B1813,2013-02-15 15:21:00,
2013-02-15 10:26:00,36.9,29.7,29.93,East,99,4.0,5.0,75,0.00,,,0.00,LWC V2.10 B1813,2013-02-15 15:26:00,
2013-02-15 10:31:00,37.7,30.2,29.93,SSE,150,2.0,5.0,74,0.00,,,0.00,LWC V2.10 B1813,2013-02-15 15:31:00,
2013-02-15 10:36:00,38.6,30.7,29.93,ENE,66,2.0,3.0,73,0.00,,,0.00,LWC V2.10 B1813,2013-02-15 15:36:00,
2013-02-15 10:41:00,39.5,30.9,29.93,South,175,1.0,6.0,71,0.00,,,0.00,LWC V2.10 B1813,2013-02-15 15:41:00,
2013-02-15 10:46:00,40.4,31.4,29.93,WNW,286,2.0,2.0,70,0.00,,,0.00,LWC V2.10 B1813,2013-02-15 15:46:00,
2013-02-15 10:51:00,40.9,30.8,29.92,SE,137,6.0,11.0,67,0.00,,,0.00,LWC V2.10 B1813,2013-02-15 15:51:00,
2013-02-15 10:56:00,41.7,31.6,29.92,NE,50,1.0,2.0,67,0.00,,,0.00,LWC V2.10 B1813,2013-02-15 15:56:00,
2013-02-15 11:01:00,42.5,31.6,29.92,SW,227,2.0,5.0,65,0.00,,,0.00,LWC V2.10 B1813,2013-02-15 16:01:00,
2013-02-15 11:06:00,42.8,31.1,29.91,West,272,2.0,7.0,63,0.00,,,0.00,LWC V2.10 B1813,2013-02-15 16:06:00,
2013-02-15 11:11:00,43.2,31.5,29.91,North,7,3.0,3.0,63,0.00,,,0.00,LWC V2.10 B1813,2013-02-15 16:11:00,
2013-02-15 11:16:00,43.6,31.0,29.91,West,260,2.0,4.0,61,0.00,,,0.00,LWC V2.10 B1813,2013-02-15 16:16:00,
2013-02-15 11:21:00,43.8,31.2,29.90,West,260,1.0,7.0,61,0.00,,,0.00,LWC V2.10 B1813,2013-02-15 16:21:00,
2013-02-15 11:26:00,44.4,31.8,29.90,NNW,331,2.0,2.0,61,0.00,,,0.00,LWC V2.10 B1813,2013-02-15 16:26:00,
2013-02-15 11:31:00,44.7,31.3,29.90,WNW,300,3.0,8.0,59,0.00,,,0.00,LWC V2.10 B1813,2013-02-15 16:31:00,
2013-02-15 11:36:00,44.8,30.9,29.90,SSE,165,3.0,8.0,58,0.00,,,0.00,LWC V2.10 B1813,2013-02-15 16:36:00,
2013-02-15 11:41:00,45.0,31.1,29.89,ESE,111,3.0,3.0,58,0.00,,,0.00,LWC V2.10 B1813,2013-02-15 16:41:00,
2013-02-15 11:46:00,45.6,31.3,29.89,East,94,3.0,5.0,57,0.00,,,0.00,LWC V2.10 B1813,2013-02-15 16:46:00,
2013-02-15 11:51:00,45.9,31.5,29.89,ESE,104,1.0,2.0,57,0.00,,,0.00,LWC V2.10 B1813,2013-02-15 16:51:00,
2013-02-15 11:56:00,46.5,31.2,29.89,NNE,29,5.0,6.0,55,0.00,,,0.00,LWC V2.10 B1813,2013-02-15 16:56:00,
2013-02-15 12:01:00,46.5,31.2,29.88,WSW,256,1.0,3.0,55,0.00,,,0.00,LWC V2.10 B1813,2013-02-15 17:01:00,
2013-02-15 12:06:00,46.5,30.8,29.88,West,263,2.0,3.0,54,0.00,,,0.00,LWC V2.10 B1813,2013-02-15 17:06:00,
2013-02-15 12:11:00,46.8,30.6,29.88,WNW,294,4.0,7.0,53,0.00,,,0.00,LWC V2.10 B1813,2013-02-15 17:11:00,
2013-02-15 12:16:00,46.7,30.5,29.88,West,277,5.0,10.0,53,0.00,,,0.00,LWC V2.10 B1813,2013-02-15 17:16:00,
2013-02-15 12:21:00,46.7,30.9,29.88,NW,325,1.0,4.0,54,0.00,,,0.00,LWC V2.10 B1813,2013-02-15 17:21:00,
2013-02-15 12:26:00,47.1,30.9,29.88,West,263,3.0,4.0,53,0.00,,,0.00,LWC V2.10 B1813,2013-02-15 17:26:00,
2013-02-15 12:31:00,47.5,30.8,29.87,North,353,6.0,9.0,52,0.00,,,0.00,LWC V2.10 B1813,2013-02-15 17:31:00,
2013-02-15 12:36:00,47.2,30.5,29.87,NNW,339,4.0,8.0,52,0.00,,,0.00,LWC V2.10 B1813,2013-02-15 17:36:00,
2013-02-15 12:41:00,47.4,30.7,29.87,WSW,248,4.0,6.0,52,0.00,,,0.00,LWC V2.10 B1813,2013-02-15 17:41:00,
2013-02-15 12:46:00,47.6,31.3,29.87,WNW,291,2.0,3.0,53,0.00,,,0.00,LWC V2.10 B1813,2013-02-15 17:46:00,
2013-02-15 12:51:00,47.9,31.6,29.87,East,92,1.0,2.0,53,0.00,,,0.00,LWC V2.10 B1813,2013-02-15 17:51:00,
2013-02-15 12:56:00,48.4,30.6,29.87,SSW,207,5.0,7.0,50,0.00,,,0.00,LWC V2.10 B1813,2013-02-15 17:56:00,
2013-02-15 13:01:00,48.3,31.0,29.86,SE,127,1.0,5.0,51,0.00,,,0.00,LWC V2.10 B1813,2013-02-15 18:01:00,
2013-02-15 13:06:00,48.5,30.7,29.86,NE,54,5.0,8.0,50,0.00,,,0.00,LWC V2.10 B1813,2013-02-15 18:06:00,
2013-02-15 13:11:00,48.7,30.9,29.86,SE,134,7.0,7.0,50,0.00,,,0.00,LWC V2.10 B1813,2013-02-15 18:11:00,
2013-02-15 13:16:00,48.7,30.4,29.86,WNW,300,6.0,7.0,49,0.00,,,0.00,LWC V2.10 B1813,2013-02-15 18:16:00,
2013-02-15 13:21:00,48.6,30.8,29.86,SSW,193,0.0,2.0,50,0.00,,,0.00,LWC V2.10 B1813,2013-02-15 18:21:00,
2013-02-15 13:26:00,49.0,30.7,29.86,West,276,1.0,4.0,49,0.00,,,0.00,LWC V2.10 B1813,2013-02-15 18:26:00,
2013-02-15 13:31:00,48.9,30.6,29.86,NW,311,5.0,12.0,49,0.00,,,0.00,LWC V2.10 B1813,2013-02-15 18:31:00,
2013-02-15 13:36:00,48.6,30.3,29.86,SE,129,0.0,6.0,49,0.00,,,0.00,LWC V2.10 B1813,2013-02-15 18:36:00,
2013-02-15 13:41:00,48.6,30.3,29.85,NW,309,0.0,3.0,49,0.00,,,0.00,LWC V2.10 B1813,2013-02-15 18:41:00,
2013-02-15 13:46:00,48.4,30.6,29.86,NNW,327,1.0,6.0,50,0.00,,,0.00,LWC V2.10 B1813,2013-02-15 18:46:00,
2013-02-15 13:51:00,48.1,30.3,29.86,WNW,293,1.0,3.0,50,0.00,,,0.00,LWC V2.10 B1813,2013-02-15 18:51:00,
2013-02-15 13:56:00,48.0,30.3,29.85,WNW,283,3.0,4.0,50,0.00,,,0.00,LWC V2.10 B1813,2013-02-15 18:56:00,
2013-02-15 14:01:00,48.2,30.9,29.85,West,276,0.0,1.0,51,0.00,,,0.00,LWC V2.10 B1813,2013-02-15 19:01:00,
2013-02-15 14:06:00,48.9,30.6,29.85,WNW,299,1.0,2.0,49,0.00,,,0.00,LWC V2.10 B1813,2013-02-15 19:06:00,
2013-02-15 14:11:00,49.5,30.6,29.85,SSE,151,2.0,2.0,48,0.00,,,0.00,LWC V2.10 B1813,2013-02-15 19:11:00,
2013-02-15 14:16:00,49.9,31.0,29.85,SE,137,2.0,2.0,48,0.00,,,0.00,LWC V2.10 B1813,2013-02-15 19:16:00,
2013-02-15 14:21:00,49.8,30.4,29.85,East,89,2.0,2.0,47,0.00,,,0.00,LWC V2.10 B1813,2013-02-15 19:21:00,
2013-02-15 14:26:00,49.6,31.2,29.85,ENE,61,1.0,1.0,49,0.00,,,0.00,LWC V2.10 B1813,2013-02-15 19:26:00,
2013-02-15 14:31:00,50.1,31.7,29.85,WSW,252,6.0,6.0,49,0.00,,,0.00,LWC V2.10 B1813,2013-02-15 19:31:00,
2013-02-15 14:36:00,50.3,31.4,29.85,South,172,0.0,3.0,48,0.00,,,0.00,LWC V2.10 B1813,2013-02-15 19:36:00,
2013-02-15 14:41:00,50.4,31.5,29.85,NW,307,1.0,2.0,48,0.00,,,0.00,LWC V2.10 B1813,2013-02-15 19:41:00,
2013-02-15 14:46:00,50.3,29.2,29.85,West,281,4.0,7.0,44,0.00,,,0.00,LWC V2.10 B1813,2013-02-15 19:46:00,
2013-02-15 14:51:00,50.4,28.8,29.85,SSW,204,3.0,7.0,43,0.00,,,0.00,LWC V2.10 B1813,2013-02-15 19:51:00,
2013-02-15 14:56:00,50.6,28.9,29.85,North,2,4.0,6.0,43,0.00,,,0.00,LWC V2.10 B1813,2013-02-15 19:56:00,
2013-02-15 15:01:00,50.4,29.3,29.85,South,182,2.0,2.0,44,0.00,,,0.00,LWC V2.10 B1813,2013-02-15 20:01:00,
2013-02-15 15:06:00,49.9,28.3,29.85,South,187,1.0,3.0,43,0.00,,,0.00,LWC V2.10 B1813,2013-02-15 20:06:00,
2013-02-15 15:11:00,50.1,28.5,29.85,SSE,159,0.0,3.0,43,0.00,,,0.00,LWC V2.10 B1813,2013-02-15 20:11:00,
2013-02-15 15:16:00,50.1,29.0,29.85,West,266,3.0,4.0,44,0.00,,,0.00,LWC V2.10 B1813,2013-02-15 20:16:00,
2013-02-15 15:21:00,49.8,29.3,29.85,North,358,1.0,6.0,45,0.00,,,0.00,LWC V2.10 B1813,2013-02-15 20:21:00,
2013-02-15 15:26:00,49.6,28.0,29.85,NNW,344,5.0,12.0,43,0.00,,,0.00,LWC V2.10 B1813,2013-02-15 20:26:00,
2013-02-15 15:31:00,49.3,28.3,29.85,NNW,346,3.0,6.0,44,0.00,,,0.00,LWC V2.10 B1813,2013-02-15 20:31:00,
2013-02-15 15:36:00,48.9,28.0,29.85,WNW,284,3.0,4.0,44,0.00,,,0.00,LWC V2.10 B1813,2013-02-15 20:36:00,
2013-02-15 15:41:00,48.6,28.8,29.85,WSW,241,1.0,3.0,46,0.00,,,0.00,LWC V2.10 B1813,2013-02-15 20:41:00,
2013-02-15 15:46:00,48.4,28.0,29.85,WSW,255,1.0,7.0,45,0.00,,,0.00,LWC V2.10 B1813,2013-02-15 20:46:00,
2013-02-15 15:51:00,48.3,27.4,29.85,WNW,287,5.0,7.0,44,0.00,,,0.00,LWC V2.10 B1813,2013-02-15 20:51:00,
2013-02-15 15:56:00,48.2,27.9,29.85,NW,315,1.0,2.0,45,0.00,,,0.00,LWC V2.10 B1813,2013-02-15 20:56:00,
2013-02-15 16:01:00,47.7,27.9,29.85,SW,234,3.0,3.0,46,0.00,,,0.00,LWC V2.10 B1813,2013-02-15 21:01:00,
2013-02-15 16:06:00,47.6,27.3,29.85,NW,315,3.0,6.0,45,0.00,,,0.00,LWC V2.10 B1813,2013-02-15 21:06:00,
2013-02-15 16:11:00,47.4,27.7,29.85,WNW,282,2.0,4.0,46,0.00,,,0.00,LWC V2.10 B1813,2013-02-15 21:11:00,
2013-02-15 16:16:00,46.9,28.2,29.85,WNW,294,3.0,3.0,48,0.00,,,0.00,LWC V2.10 B1813,2013-02-15 21:16:00,
2013-02-15 16:21:00,45.9,28.8,29.86,NW,305,2.0,6.0,51,0.00,,,0.00,LWC V2.10 B1813,2013-02-15 21:21:00,
2013-02-15 16:26:00,45.1,28.5,29.85,West,281,0.0,2.0,52,0.00,,,0.00,LWC V2.10 B1813,2013-02-15 21:26:00,
2013-02-15 16:31:00,44.6,28.5,29.85,West,265,0.0,1.0,53,0.00,,,0.00,LWC V2.10 B1813,2013-02-15 21:31:00,
2013-02-15 16:36:00,43.6,29.0,29.86,West,272,0.0,0.0,56,0.00,,,0.00,LWC V2.10 B1813,2013-02-15 21:36:00,
2013-02-15 16:41:00,43.1,28.9,29.86,WNW,292,0.0,0.0,57,0.00,,,0.00,LWC V2.10 B1813,2013-02-15 21:41:00,
2013-02-15 16:46:00,42.1,28.8,29.86,WNW,293,1.0,1.0,59,0.00,,,0.00,LWC V2.10 B1813,2013-02-15 21:46:00,
2013-02-15 16:51:00,42.2,29.3,29.86,NW,318,1.0,2.0,60,0.00,,,0.00,LWC V2.10 B1813,2013-02-15 21:51:00,
2013-02-15 16:56:00,41.5,29.5,29.86,WNW,298,2.0,2.0,62,0.00,,,0.00,LWC V2.10 B1813,2013-02-15 21:56:00,
2013-02-15 17:01:00,40.8,29.2,29.87,WNW,283,3.0,3.0,63,0.00,,,0.00,LWC V2.10 B1813,2013-02-15 22:01:00,
2013-02-15 17:06:00,40.8,29.2,29.87,NW,311,3.0,4.0,63,0.00,,,0.00,LWC V2.10 B1813,2013-02-15 22:06:00,
2013-02-15 17:11:00,41.1,29.1,29.88,NW,310,2.0,5.0,62,0.00,,,0.00,LWC V2.10 B1813,2013-02-15 22:11:00,
2013-02-15 17:16:00,41.3,28.9,29.88,NW,307,2.0,4.0,61,0.00,,,0.00,LWC V2.10 B1813,2013-02-15 22:16:00,
2013-02-15 17:21:00,41.5,29.1,29.88,NW,305,3.0,6.0,61,0.00,,,0.00,LWC V2.10 B1813,2013-02-15 22:21:00,
2013-02-15 17:26:00,41.6,28.8,29.88,WNW,291,2.0,5.0,60,0.00,,,0.00,LWC V2.10 B1813,2013-02-15 22:26:00,
2013-02-15 17:31:00,41.0,29.0,29.89,NW,310,2.0,3.0,62,0.00,,,0.00,LWC V2.10 B1813,2013-02-15 22:31:00,
2013-02-15 17:36:00,40.4,28.8,29.89,WNW,290,1.0,3.0,63,0.00,,,0.00,LWC V2.10 B1813,2013-02-15 22:36:00,
2013-02-15 17:41:00,40.0,28.8,29.89,West,262,3.0,5.0,64,0.00,,,0.00,LWC V2.10 B1813,2013-02-15 22:41:00,
2013-02-15 17:46:00,39.8,28.6,29.89,West,281,1.0,4.0,64,0.00,,,0.00,LWC V2.10 B1813,2013-02-15 22:46:00,
2013-02-15 17:51:00,39.1,28.7,29.89,WNW,294,1.0,3.0,66,0.00,,,0.00,LWC V2.10 B1813,2013-02-15 22:51:00,
2013-02-15 17:56:00,38.8,28.8,29.89,WNW,302,2.0,4.0,67,0.00,,,0.00,LWC V2.10 B1813,2013-02-15 22:56:00,
2013-02-15 18:01:00,39.0,28.6,29.90,NW,310,2.0,6.0,66,0.00,,,0.00,LWC V2.10 B1813,2013-02-15 23:01:00,
2013-02-15 18:06:00,39.9,28.3,29.89,NW,308,6.0,6.0,63,0.00,,,0.00,LWC V2.10 B1813,2013-02-15 23:06:00,
2013-02-15 18:11:00,40.5,27.3,29.89,WNW,296,4.0,8.0,59,0.00,,,0.00,LWC V2.10 B1813,2013-02-15 23:11:00,
2013-02-15 18:16:00,41.0,27.4,29.90,NW,318,7.0,9.0,58,0.00,,,0.00,LWC V2.10 B1813,2013-02-15 23:16:00,
2013-02-15 18:21:00,41.1,27.5,29.90,WNW,298,1.0,6.0,58,0.00,,,0.00,LWC V2.10 B1813,2013-02-15 23:21:00,
2013-02-15 18:26:00,40.7,27.5,29.90,West,260,1.0,2.0,59,0.00,,,0.00,LWC V2.10 B1813,2013-02-15 23:26:00,
2013-02-15 18:31:00,40.4,28.0,29.90,NNW,334,2.0,2.0,61,0.00,,,0.00,LWC V2.10 B1813,2013-02-15 23:31:00,
2013-02-15 18:36:00,40.3,27.5,29.90,NNE,12,1.0,3.0,60,0.00,,,0.00,LWC V2.10 B1813,2013-02-15 23:36:00,
2013-02-15 18:41:00,40.3,27.1,29.91,NNW,341,2.0,4.0,59,0.00,,,0.00,LWC V2.10 B1813,2013-02-15 23:41:00,
2013-02-15 18:46:00,40.3,27.1,29.91,North,7,0.0,3.0,59,0.00,,,0.00,LWC V2.10 B1813,2013-02-15 23:46:00,
2013-02-15 18:51:00,39.8,27.9,29.90,ENE,64,0.0,0.0,62,0.00,,,0.00,LWC V2.10 B1813,2013-02-15 23:51:00,
2013-02-15 18:56:00,39.2,27.7,29.91,West,262,0.0,0.0,63,0.00,,,0.00,LWC V2.10 B1813,2013-02-15 23:56:00,
2013-02-15 19:01:00,38.7,27.6,29.91,West,262,0.0,0.0,64,0.00,,,0.00,LWC V2.10 B1813,2013-02-16 00:01:00,
2013-02-15 19:06:00,38.1,27.4,29.91,NW,310,1.0,1.0,65,0.00,,,0.00,LWC V2.10 B1813,2013-02-16 00:06:00,
2013-02-15 19:11:00,37.9,27.6,29.91,NW,308,1.0,1.0,66,0.00,,,0.00,LWC V2.10 B1813,2013-02-16 00:11:00,
2013-02-15 19:16:00,37.6,26.5,29.91,SSE,159,1.0,1.0,64,0.00,,,0.00,LWC V2.10 B1813,2013-02-16 00:16:00,
2013-02-15 19:21:00,37.4,27.5,29.91,West,272,0.0,1.0,67,0.00,,,0.00,LWC V2.10 B1813,2013-02-16 00:21:00,
2013-02-15 19:26:00,36.9,28.0,29.91,West,273,0.0,0.0,70,0.00,,,0.00,LWC V2.10 B1813,2013-02-16 00:26:00,
2013-02-15 19:31:00,36.5,27.7,29.91,WNW,294,1.0,2.0,70,0.00,,,0.00,LWC V2.10 B1813,2013-02-16 00:31:00,
2013-02-15 19:36:00,36.1,28.6,29.91,WNW,294,1.0,1.0,74,0.00,,,0.00,LWC V2.10 B1813,2013-02-16 00:36:00,
2013-02-15 19:41:00,35.6,28.1,29.91,WNW,294,0.0,1.0,74,0.00,,,0.00,LWC V2.10 B1813,2013-02-16 00:41:00,
2013-02-15 19:46:00,35.2,28.4,29.91,West,269,0.0,1.0,76,0.00,,,0.00,LWC V2.10 B1813,2013-02-16 00:46:00,
2013-02-15 19:51:00,34.9,28.1,29.92,WNW,289,1.0,2.0,76,0.00,,,0.00,LWC V2.10 B1813,2013-02-16 00:51:00,
2013-02-15 19:56:00,34.8,28.3,29.91,WNW,293,1.0,2.0,77,0.00,,,0.00,LWC V2.10 B1813,2013-02-16 00:56:00,
2013-02-15 20:01:00,34.6,28.8,29.91,West,279,2.0,2.0,79,0.00,,,0.00,LWC V2.10 B1813,2013-02-16 01:01:00,
2013-02-15 20:06:00,34.2,29.0,29.91,WNW,284,1.0,2.0,81,0.00,,,0.00,LWC V2.10 B1813,2013-02-16 01:06:00,
2013-02-15 20:11:00,34.1,28.6,29.91,West,277,0.0,2.0,80,0.00,,,0.00,LWC V2.10 B1813,2013-02-16 01:11:00,
2013-02-15 20:16:00,34.1,28.6,29.91,WNW,286,0.0,2.0,80,0.00,,,0.00,LWC V2.10 B1813,2013-02-16 01:16:00,
2013-02-15 20:21:00,34.1,28.6,29.91,WNW,284,0.0,1.0,80,0.00,,,0.00,LWC V2.10 B1813,2013-02-16 01:21:00,
2013-02-15 20:26:00,34.1,28.6,29.91,WSW,256,0.0,1.0,80,0.00,,,0.00,LWC V2.10 B1813,2013-02-16 01:26:00,
2013-02-15 20:31:00,33.9,28.7,29.91,West,275,1.0,1.0,81,0.00,,,0.00,LWC V2.10 B1813,2013-02-16 01:31:00,
2013-02-15 20:36:00,33.6,28.7,29.91,West,275,1.0,1.0,82,0.00,,,0.00,LWC V2.10 B1813,2013-02-16 01:36:00,
2013-02-15 20:41:00,33.3,28.4,29.91,West,279,1.0,1.0,82,0.00,,,0.00,LWC V2.10 B1813,2013-02-16 01:41:00,
2013-02-15 20:46:00,33.0,28.4,29.92,West,280,0.0,1.0,83,0.00,,,0.00,LWC V2.10 B1813,2013-02-16 01:46:00,
2013-02-15 20:51:00,32.7,28.4,29.91,WNW,286,0.0,0.0,84,0.00,,,0.00,LWC V2.10 B1813,2013-02-16 01:51:00,
2013-02-15 20:56:00,32.5,27.9,29.92,WNW,286,0.0,0.0,83,0.00,,,0.00,LWC V2.10 B1813,2013-02-16 01:56:00,
2013-02-15 21:01:00,32.1,27.8,29.91,WNW,286,0.0,0.0,84,0.00,,,0.00,LWC V2.10 B1813,2013-02-16 02:01:00,
2013-02-15 21:06:00,31.7,28.0,29.92,WNW,287,0.0,0.0,86,0.00,,,0.00,LWC V2.10 B1813,2013-02-16 02:06:00,
2013-02-15 21:11:00,31.4,27.7,29.92,WNW,284,0.0,0.0,86,0.00,,,0.00,LWC V2.10 B1813,2013-02-16 02:11:00,
2013-02-15 21:16:00,31.2,27.5,29.91,WNW,285,0.0,0.0,86,0.00,,,0.00,LWC V2.10 B1813,2013-02-16 02:16:00,
2013-02-15 21:21:00,31.2,27.5,29.91,WNW,290,0.0,0.0,86,0.00,,,0.00,LWC V2.10 B1813,2013-02-16 02:21:00,
2013-02-15 21:26:00,31.0,27.6,29.91,WNW,287,0.0,0.0,87,0.00,,,0.00,LWC V2.10 B1813,2013-02-16 02:26:00,
2013-02-15 21:31:00,31.1,27.4,29.92,West,269,1.0,2.0,86,0.00,,,0.00,LWC V2.10 B1813,2013-02-16 02:31:00,
2013-02-15 21:36:00,31.1,27.7,29.91,WNW,294,1.0,1.0,87,0.00,,,0.00,LWC V2.10 B1813,2013-02-16 02:36:00,
2013-02-15 21:41:00,31.1,27.4,29.92,NW,308,1.0,2.0,86,0.00,,,0.00,LWC V2.10 B1813,2013-02-16 02:41:00,
2013-02-15 21:46:00,31.0,27.3,29.92,NW,308,0.0,1.0,86,0.00,,,0.00,LWC V2.10 B1813,2013-02-16 02:46:00,
2013-02-15 21:51:00,30.8,27.4,29.92,NW,308,0.0,0.0,87,0.00,,,0.00,LWC V2.10 B1813,2013-02-16 02:51:00,
2013-02-15 21:56:00,30.7,27.3,29.91,NW,308,0.0,1.0,87,0.00,,,0.00,LWC V2.10 B1813,2013-02-16 02:56:00,
2013-02-15 22:01:00,30.5,27.1,29.91,NW,308,0.0,0.0,87,0.00,,,0.00,LWC V2.10 B1813,2013-02-16 03:01:00,
2013-02-15 22:06:00,30.2,27.1,29.92,NW,308,0.0,1.0,88,0.00,,,0.00,LWC V2.10 B1813,2013-02-16 03:06:00,
2013-02-15 22:11:00,30.1,27.0,29.92,South,175,1.0,2.0,88,0.00,,,0.00,LWC V2.10 B1813,2013-02-16 03:11:00,
2013-02-15 22:16:00,30.2,27.1,29.92,South,172,0.0,0.0,88,0.00,,,0.00,LWC V2.10 B1813,2013-02-16 03:16:00,
2013-02-15 22:21:00,30.2,27.1,29.92,WNW,283,1.0,1.0,88,0.00,,,0.00,LWC V2.10 B1813,2013-02-16 03:21:00,
2013-02-15 22:26:00,30.5,27.1,29.92,WNW,283,2.0,2.0,87,0.00,,,0.00,LWC V2.10 B1813,2013-02-16 03:26:00,
2013-02-15 22:31:00,30.6,27.5,29.92,WNW,288,1.0,3.0,88,0.00,,,0.00,LWC V2.10 B1813,2013-02-16 03:31:00,
2013-02-15 22:36:00,30.7,27.9,29.92,WNW,283,2.0,2.0,89,0.00,,,0.00,LWC V2.10 B1813,2013-02-16 03:36:00,
2013-02-15 22:41:00,30.8,27.7,29.92,WNW,286,1.0,1.0,88,0.00,,,0.00,LWC V2.10 B1813,2013-02-16 03:41:00,
2013-02-15 22:46:00,30.9,27.8,29.92,WNW,283,1.0,1.0,88,0.00,,,0.00,LWC V2.10 B1813,2013-02-16 03:46:00,
2013-02-15 22:51:00,31.0,27.6,29.92,WNW,283,0.0,0.0,87,0.00,,,0.00,LWC V2.10 B1813,2013-02-16 03:51:00,
2013-02-15 22:56:00,31.0,27.9,29.92,WNW,282,0.0,1.0,88,0.00,,,0.00,LWC V2.10 B1813,2013-02-16 03:56:00,
2013-02-15 23:01:00,30.9,27.5,29.92,WNW,282,0.0,0.0,87,0.00,,,0.00,LWC V2.10 B1813,2013-02-16 04:01:00,
2013-02-15 23:06:00,31.0,27.3,29.93,WNW,283,0.0,0.0,86,0.00,,,0.00,LWC V2.10 B1813,2013-02-16 04:06:00,
2013-02-15 23:11:00,31.0,27.6,29.92,WNW,283,0.0,0.0,87,0.00,,,0.00,LWC V2.10 B1813,2013-02-16 04:11:00,
2013-02-15 23:16:00,31.0,27.6,29.92,WNW,283,0.0,0.0,87,0.00,,,0.00,LWC V2.10 B1813,2013-02-16 04:16:00,
2013-02-15 23:21:00,31.0,27.6,29.92,WNW,283,0.0,1.0,87,0.00,,,0.00,LWC V2.10 B1813,2013-02-16 04:21:00,
2013-02-15 23:26:00,31.0,27.6,29.91,WNW,283,0.0,0.0,87,0.00,,,0.00,LWC V2.10 B1813,2013-02-16 04:26:00,
2013-02-15 23:31:00,30.9,27.5,29.92,WNW,283,0.0,0.0,87,0.00,,,0.00,LWC V2.10 B1813,2013-02-16 04:31:00,
2013-02-15 23:36:00,30.8,27.4,29.92,WNW,283,0.0,0.0,87,0.00,,,0.00,LWC V2.10 B1813,2013-02-16 04:36:00,
2013-02-15 23:41:00,30.7,27.3,29.92,WNW,283,0.0,0.0,87,0.00,,,0.00,LWC V2.10 B1813,2013-02-16 04:41:00,
2013-02-15 23:46:00,30.7,27.3,29.92,West,281,1.0,1.0,87,0.00,,,0.00,LWC V2.10 B1813,2013-02-16 04:46:00,
2013-02-15 23:51:00,30.9,27.5,29.92,WNW,282,0.0,1.0,87,0.00,,,0.00,LWC V2.10 B1813,2013-02-16 04:51:00,
2013-02-15 23:56:00,31.0,27.6,29.92,WNW,282,0.0,0.0,87,0.00,,,0.00,LWC V2.10 B1813,2013-02-16 04:56:00,